createdAt,value
2017-08-02T08:15:48.743Z,1.23
2017-08-02T08:18:25.290Z,1.30
2017-08-02T08:21:04.585Z,1.53
2017-08-02T08:23:35.023Z,1.93
2017-08-02T08:26:14.889Z,1.70
2017-08-02T08:28:53.209Z,1.97
2017-08-02T08:31:24.823Z,1.83
2017-08-02T08:34:03.049Z,1.70
2017-08-02T08:36:34.953Z,1.60
2017-08-02T08:39:05.422Z,1.30
2017-08-02T08:41:36.175Z,1.90
2017-08-02T08:44:06.504Z,1.30
2017-08-02T08:46:45.170Z,1.77
2017-08-02T08:49:15.549Z,1.70
2017-08-02T08:51:57.922Z,1.10
2017-08-02T08:54:28.456Z,1.40
2017-08-02T08:56:59.392Z,1.90
2017-08-02T08:59:29.712Z,1.67
2017-08-02T09:01:59.950Z,1.33
2017-08-02T09:04:30.294Z,2.60
2017-08-02T09:07:01.083Z,1.40
2017-08-02T09:09:31.290Z,2.37
2017-08-02T09:12:01.805Z,1.40
2017-08-02T09:14:38.958Z,1.90
2017-08-02T09:17:17.813Z,1.87
2017-08-02T09:19:56.222Z,1.80
2017-08-02T09:22:36.878Z,1.53
2017-08-02T09:25:16.251Z,1.50
2017-08-02T09:27:55.855Z,1.70
2017-08-02T09:30:35.085Z,2.43
2017-08-02T09:33:13.877Z,2.10
2017-08-02T09:35:49.314Z,1.90
2017-08-02T09:38:27.177Z,1.90
2017-08-02T09:40:57.282Z,2.07
2017-08-02T09:43:36.139Z,2.07
2017-08-02T09:46:09.548Z,2.03
2017-08-02T09:48:48.493Z,1.97
2017-08-02T09:51:26.769Z,1.80
2017-08-02T09:54:05.498Z,2.07
2017-08-02T09:56:44.185Z,1.97
2017-08-02T09:59:21.730Z,2.33
2017-08-02T10:01:51.957Z,4.03
2017-08-02T10:04:33.382Z,2.87
2017-08-02T10:07:13.111Z,3.73
2017-08-02T10:09:50.004Z,2.73
2017-08-02T10:12:27.009Z,2.50
2017-08-02T10:15:06.810Z,2.57
2017-08-02T10:17:37.243Z,3.07
2017-08-02T10:20:16.452Z,3.57
2017-08-02T10:22:53.293Z,4.27
2017-08-02T10:25:25.414Z,4.27
2017-08-02T10:28:04.031Z,2.57
2017-08-02T10:30:40.399Z,2.73
2017-08-02T10:33:18.751Z,3.37
2017-08-02T10:35:59.634Z,3.97
2017-08-02T10:38:37.338Z,3.13
2017-08-02T10:41:16.768Z,3.70
2017-08-02T10:43:54.736Z,3.00
2017-08-02T10:46:34.499Z,3.97
2017-08-02T10:49:04.946Z,3.67
2017-08-02T10:51:44.121Z,3.40
2017-08-02T10:54:22.018Z,2.53
2017-08-02T10:57:01.689Z,2.93
2017-08-02T10:59:39.192Z,3.30
2017-08-02T11:02:19.128Z,3.00
2017-08-02T11:05:01.547Z,2.90
2017-08-02T11:07:40.532Z,3.17
2017-08-02T11:10:18.920Z,3.53
2017-08-02T11:12:59.302Z,2.70
2017-08-02T11:15:29.710Z,3.10
2017-08-02T11:18:00.474Z,3.90
2017-08-02T11:20:37.930Z,2.87
2017-08-02T11:23:16.685Z,2.90
2017-08-02T11:25:55.776Z,3.83
2017-08-02T11:28:35.875Z,3.57
2017-08-02T11:31:14.225Z,3.80
2017-08-02T11:33:54.934Z,3.30
2017-08-02T11:36:33.226Z,2.70
2017-08-02T11:39:13.516Z,3.20
2017-08-02T11:41:51.906Z,2.50
2017-08-02T11:44:30.273Z,2.93
2017-08-02T11:47:05.413Z,3.40
2017-08-02T11:49:37.310Z,3.57
2017-08-02T11:52:15.464Z,3.77
2017-08-02T11:55:00.210Z,2.70
2017-08-02T11:57:39.163Z,2.83
2017-08-02T12:00:19.291Z,2.80
2017-08-02T12:02:57.520Z,3.03
2017-08-02T12:05:36.383Z,2.87
2017-08-02T12:08:14.736Z,3.70
2017-08-02T12:10:55.999Z,3.37
2017-08-02T12:13:34.875Z,2.93
2017-08-02T12:16:12.900Z,2.70
2017-08-02T12:18:50.857Z,3.17
2017-08-02T12:21:34.985Z,17.33
2017-08-02T12:24:16.819Z,64.67
2017-08-02T12:26:58.811Z,91.23
2017-08-02T12:29:32.572Z,96.10
2017-08-02T12:32:12.267Z,126.77
2017-08-02T12:34:52.901Z,236.97
2017-08-02T12:37:28.611Z,180.50
2017-08-02T12:40:08.170Z,122.63
2017-08-02T12:42:47.886Z,86.10
2017-08-02T12:45:25.737Z,64.70
2017-08-02T12:48:08.057Z,42.40
2017-08-02T12:50:38.272Z,26.87
2017-08-02T12:53:19.670Z,15.90
2017-08-02T12:55:58.216Z,25.37
2017-08-02T12:58:37.602Z,19.70
2017-08-02T13:01:07.959Z,19.73
2017-08-02T13:03:47.555Z,18.07
2017-08-02T13:06:25.933Z,16.03
2017-08-02T13:09:05.811Z,18.03
2017-08-02T13:11:36.482Z,17.13
2017-08-02T13:14:16.342Z,10.80
2017-08-02T13:16:54.375Z,13.40
2017-08-02T13:19:33.448Z,18.40
2017-08-02T13:22:03.798Z,12.17
2017-08-02T13:24:46.388Z,16.10
2017-08-02T13:27:25.711Z,16.20
2017-08-02T13:30:05.732Z,14.70
2017-08-02T13:32:44.177Z,15.70
2017-08-02T13:35:23.628Z,14.47
2017-08-02T13:38:02.619Z,13.20
2017-08-02T13:40:42.152Z,12.47
2017-08-02T13:43:21.345Z,12.20
2017-08-02T13:46:00.130Z,11.60
2017-08-02T13:48:37.634Z,12.10
2017-08-02T13:51:19.672Z,11.20
2017-08-02T13:53:58.730Z,11.40
2017-08-02T13:56:38.588Z,9.27
2017-08-02T13:59:16.006Z,10.07
2017-08-02T14:01:55.790Z,9.10
2017-08-02T14:04:34.882Z,8.83
2017-08-02T14:07:11.126Z,9.10
2017-08-02T14:09:48.406Z,8.93
2017-08-02T14:12:29.095Z,9.23
2017-08-02T14:14:59.533Z,8.73
2017-08-02T14:17:38.768Z,9.20
2017-08-02T14:20:09.153Z,9.03
2017-08-02T14:22:48.885Z,8.40
2017-08-02T14:25:27.205Z,8.80
2017-08-02T14:28:07.069Z,8.03
2017-08-02T14:30:45.638Z,8.30
2017-08-02T14:33:27.990Z,7.17
2017-08-02T14:36:07.036Z,7.00
2017-08-02T14:38:46.652Z,7.43
2017-08-02T14:41:25.538Z,8.40
2017-08-02T14:44:05.320Z,7.90
2017-08-02T14:46:40.927Z,6.50
2017-08-02T14:49:20.656Z,6.40
2017-08-02T14:51:58.858Z,5.73
2017-08-02T14:54:29.608Z,5.77
2017-08-02T14:57:00.004Z,5.70
2017-08-02T14:59:30.425Z,5.60
2017-08-02T15:02:11.037Z,5.10
2017-08-02T15:04:41.321Z,5.77
2017-08-02T15:07:12.338Z,6.17
2017-08-02T15:09:42.792Z,6.10
2017-08-02T15:12:14.299Z,6.63
2017-08-02T15:14:44.765Z,5.97
2017-08-02T15:17:23.729Z,5.87
2017-08-02T15:19:54.126Z,5.50
2017-08-02T15:22:37.174Z,5.03
2017-08-02T15:25:18.407Z,4.90
2017-08-02T15:27:57.509Z,5.80
2017-08-02T15:30:36.887Z,5.97
2017-08-02T15:33:15.842Z,5.00
2017-08-02T15:35:53.746Z,5.10
2017-08-02T15:38:32.796Z,4.83
2017-08-02T15:41:11.601Z,5.60
2017-08-02T15:43:51.262Z,5.60
2017-08-02T15:46:29.922Z,5.40
2017-08-02T15:49:08.488Z,4.60
2017-08-02T15:51:46.377Z,4.70
2017-08-02T15:54:25.527Z,3.83
2017-08-02T15:57:02.640Z,4.57
2017-08-02T15:59:41.586Z,5.27
2017-08-02T16:02:20.034Z,4.80
2017-08-02T16:04:58.654Z,4.60
2017-08-02T16:07:37.114Z,4.27
2017-08-02T16:10:16.579Z,4.07
2017-08-02T16:12:55.323Z,4.07
2017-08-02T16:15:35.207Z,4.67
2017-08-02T16:18:13.982Z,4.40
2017-08-02T16:20:53.883Z,4.10
2017-08-02T16:23:32.752Z,3.97
2017-08-02T16:26:12.574Z,3.90
2017-08-02T16:28:50.348Z,3.50
2017-08-02T16:31:28.324Z,4.73
2017-08-02T16:34:06.092Z,3.80
2017-08-02T16:36:44.620Z,3.67
2017-08-02T16:39:22.465Z,3.93
2017-08-02T16:42:00.483Z,3.80
2017-08-02T16:44:37.734Z,3.27
2017-08-02T16:47:17.270Z,3.23
2017-08-02T16:49:54.025Z,3.30
2017-08-02T16:52:30.640Z,5.23
2017-08-02T16:55:07.693Z,4.00
2017-08-02T16:57:49.286Z,3.30
2017-08-02T17:00:28.603Z,3.83
2017-08-02T17:03:07.089Z,3.70
2017-08-02T17:05:44.902Z,3.23
2017-08-02T17:08:22.921Z,3.87
2017-08-02T17:10:59.464Z,3.27
2017-08-02T17:13:39.445Z,2.90
2017-08-02T17:16:17.903Z,2.60
2017-08-02T17:18:55.507Z,2.57
2017-08-02T17:21:34.213Z,4.10
2017-08-02T17:24:16.044Z,2.33
2017-08-02T17:26:53.140Z,2.80
2017-08-02T17:29:33.279Z,3.07
2017-08-02T17:32:13.883Z,3.30
2017-08-02T17:34:54.414Z,3.30
2017-08-02T17:37:34.172Z,2.70
2017-08-02T17:40:14.093Z,3.77
2017-08-02T17:42:52.247Z,2.60
2017-08-02T17:45:30.803Z,2.70
2017-08-02T17:48:08.959Z,3.10
2017-08-02T17:50:48.340Z,2.77
2017-08-02T17:53:26.427Z,2.83
2017-08-02T17:56:04.046Z,3.07
2017-08-02T17:58:42.069Z,3.07
2017-08-02T18:01:22.943Z,2.77
2017-08-02T18:04:01.045Z,2.57
2017-08-02T18:06:41.907Z,3.07
2017-08-02T18:09:21.176Z,2.90
2017-08-02T18:11:59.288Z,2.87
2017-08-02T18:14:35.837Z,2.53
2017-08-02T18:17:15.430Z,2.60
2017-08-02T18:19:53.977Z,2.70
2017-08-02T18:22:34.496Z,2.80
2017-08-02T18:25:13.248Z,2.30
2017-08-02T18:27:53.125Z,3.17
2017-08-02T18:30:27.780Z,3.63
2017-08-02T18:32:58.363Z,2.70
2017-08-02T18:35:31.746Z,2.90
2017-08-02T18:38:04.092Z,2.87
2017-08-02T18:40:34.435Z,2.53
2017-08-02T18:43:05.178Z,2.73
2017-08-02T18:45:39.297Z,2.40
2017-08-02T18:48:18.270Z,2.27
2017-08-02T18:50:54.868Z,2.47
2017-08-02T18:53:25.620Z,2.60
2017-08-02T18:56:06.196Z,2.40
2017-08-02T18:58:46.777Z,2.43
2017-08-02T19:01:25.812Z,2.93
2017-08-02T19:04:05.831Z,2.47
2017-08-02T19:06:44.258Z,2.93
2017-08-02T19:09:22.982Z,3.00
2017-08-02T19:12:04.259Z,2.90
2017-08-02T19:14:43.593Z,3.20
2017-08-02T19:17:21.002Z,2.17
2017-08-02T19:20:00.525Z,2.40
2017-08-02T19:22:39.819Z,2.80
2017-08-02T19:25:19.868Z,2.23
2017-08-02T19:27:57.801Z,2.30
2017-08-02T19:30:33.383Z,2.20
2017-08-02T19:33:12.843Z,2.53
2017-08-02T19:35:55.716Z,2.03
2017-08-02T19:38:35.121Z,2.83
2017-08-02T19:41:12.947Z,2.30
2017-08-02T19:43:50.696Z,2.20
2017-08-02T19:46:21.558Z,3.00
2017-08-02T19:49:08.758Z,2.27
2017-08-02T19:51:40.002Z,2.50
2017-08-02T19:54:10.551Z,2.70
2017-08-02T19:56:41.405Z,2.20
2017-08-02T19:59:11.815Z,2.27
2017-08-02T20:01:42.793Z,3.10
2017-08-02T20:04:14.704Z,2.47
2017-08-02T20:06:45.940Z,2.83
2017-08-02T20:09:26.229Z,2.70
2017-08-02T20:12:05.258Z,2.40
2017-08-02T20:14:35.795Z,2.43
2017-08-02T20:17:15.754Z,3.50
2017-08-02T20:19:47.923Z,2.87
2017-08-02T20:22:27.705Z,3.20
2017-08-02T20:24:58.383Z,2.20
2017-08-02T20:27:29.608Z,3.23
2017-08-02T20:30:00.133Z,3.30
2017-08-02T20:32:32.020Z,3.00
2017-08-02T20:35:07.054Z,3.60
2017-08-02T20:37:47.582Z,2.80
2017-08-02T20:40:17.918Z,3.00
2017-08-02T20:42:48.803Z,2.40
2017-08-02T20:45:19.174Z,2.40
2017-08-02T20:47:49.293Z,2.83
2017-08-02T20:50:19.918Z,2.10
2017-08-02T20:52:50.793Z,2.40
2017-08-02T20:55:21.099Z,2.20
2017-08-02T20:57:51.318Z,2.80
2017-08-02T21:00:22.158Z,2.40
2017-08-02T21:02:59.281Z,2.77
2017-08-02T21:05:39.028Z,2.97
2017-08-02T21:08:16.432Z,2.47
2017-08-02T21:10:54.568Z,2.47
2017-08-02T21:13:33.813Z,2.30
2017-08-02T21:16:13.338Z,2.90
2017-08-02T21:18:44.381Z,2.23
2017-08-02T21:21:25.575Z,2.20
2017-08-02T21:24:05.874Z,2.33
2017-08-02T21:26:37.212Z,2.60
2017-08-02T21:29:08.000Z,2.03
2017-08-02T21:31:48.783Z,2.57
2017-08-02T21:34:30.720Z,2.90
2017-08-02T21:37:08.424Z,2.47
2017-08-02T21:39:45.398Z,2.50
2017-08-02T21:42:27.736Z,2.27
2017-08-02T21:45:07.224Z,2.30
2017-08-02T21:47:47.867Z,2.80
2017-08-02T21:50:24.072Z,2.60
